createdAt,value
2017-08-25T00:00:42.051Z,91.40
2017-08-25T00:03:09.729Z,91.60
2017-08-25T00:05:37.514Z,91.60
2017-08-25T00:08:05.148Z,91.70
2017-08-25T00:10:32.779Z,91.70
2017-08-25T00:13:00.362Z,91.90
2017-08-25T00:15:28.017Z,92.10
2017-08-25T00:17:55.634Z,92.30
2017-08-25T00:20:23.213Z,92.40
2017-08-25T00:22:50.984Z,92.40
2017-08-25T00:25:18.678Z,92.30
2017-08-25T00:27:46.288Z,92.30
2017-08-25T00:30:13.933Z,92.40
2017-08-25T00:32:41.580Z,92.40
2017-08-25T00:35:09.192Z,92.30
2017-08-25T00:37:36.828Z,92.20
2017-08-25T00:40:04.490Z,92.40
2017-08-25T00:42:32.096Z,92.10
2017-08-25T00:44:59.679Z,92.00
2017-08-25T00:47:27.417Z,92.00
2017-08-25T00:49:55.012Z,91.90
2017-08-25T00:52:22.608Z,91.90
2017-08-25T00:54:50.291Z,92.50
2017-08-25T00:57:17.936Z,92.10
2017-08-25T00:59:45.594Z,92.30
2017-08-25T01:02:13.187Z,92.30
2017-08-25T01:04:40.840Z,92.20
2017-08-25T01:07:08.477Z,92.40
2017-08-25T01:09:36.143Z,92.20
2017-08-25T01:12:03.826Z,92.40
2017-08-25T01:14:31.435Z,92.40
2017-08-25T01:16:59.109Z,92.50
2017-08-25T01:19:26.870Z,92.40
2017-08-25T01:21:54.460Z,92.30
2017-08-25T01:24:22.090Z,92.20
2017-08-25T01:26:49.756Z,92.40
2017-08-25T01:29:17.439Z,92.20
2017-08-25T01:31:45.083Z,91.50
2017-08-25T01:34:12.691Z,91.80
2017-08-25T01:36:40.332Z,92.00
2017-08-25T01:39:07.983Z,92.30
2017-08-25T01:41:35.721Z,92.30
2017-08-25T01:44:03.528Z,92.30
2017-08-25T01:46:31.193Z,92.40
2017-08-25T01:48:58.841Z,92.40
2017-08-25T01:51:26.515Z,92.20
2017-08-25T01:53:54.195Z,91.50
2017-08-25T01:56:21.828Z,91.50
2017-08-25T01:58:49.507Z,91.60
2017-08-25T02:01:17.215Z,92.10
2017-08-25T02:03:44.830Z,92.20
2017-08-25T02:06:12.468Z,92.70
2017-08-25T02:08:40.192Z,92.40
2017-08-25T02:11:07.810Z,92.50
2017-08-25T02:13:35.401Z,92.50
2017-08-25T02:16:03.120Z,92.20
2017-08-25T02:18:30.777Z,92.50
2017-08-25T02:20:58.420Z,92.30
2017-08-25T02:23:26.085Z,92.50
2017-08-25T02:25:53.846Z,92.50
2017-08-25T02:28:21.495Z,92.40
2017-08-25T02:30:49.102Z,91.60
2017-08-25T02:33:16.763Z,91.50
2017-08-25T02:35:44.403Z,91.60
2017-08-25T02:38:12.000Z,91.80
2017-08-25T02:40:39.643Z,92.10
2017-08-25T02:43:07.269Z,92.00
2017-08-25T02:45:34.886Z,92.10
2017-08-25T02:48:02.603Z,91.70
2017-08-25T02:50:30.268Z,92.00
2017-08-25T02:52:57.861Z,92.40
2017-08-25T02:55:25.455Z,92.40
2017-08-25T02:57:53.112Z,92.50
2017-08-25T03:00:20.710Z,92.60
2017-08-25T03:02:48.337Z,92.70
2017-08-25T03:05:15.968Z,92.90
2017-08-25T03:07:43.589Z,93.00
2017-08-25T03:10:11.228Z,93.10
2017-08-25T03:12:38.864Z,93.20
2017-08-25T03:15:06.444Z,92.70
2017-08-25T03:17:34.041Z,92.50
2017-08-25T03:20:01.629Z,92.70
2017-08-25T03:22:29.291Z,92.60
2017-08-25T03:24:56.899Z,92.80
2017-08-25T03:27:24.511Z,93.10
2017-08-25T03:29:52.868Z,92.80
2017-08-25T03:32:21.232Z,92.60
2017-08-25T03:34:48.829Z,92.60
2017-08-25T03:37:16.489Z,93.20
2017-08-25T03:39:44.066Z,92.80
2017-08-25T03:42:11.656Z,93.10
2017-08-25T03:44:39.273Z,92.90
2017-08-25T03:47:06.949Z,93.10
2017-08-25T03:49:34.580Z,92.90
2017-08-25T03:52:02.383Z,93.10
2017-08-25T03:54:30.129Z,93.20
2017-08-25T03:56:57.797Z,93.10
2017-08-25T03:59:25.399Z,93.40
2017-08-25T04:01:53.011Z,93.50
2017-08-25T04:04:20.651Z,93.20
2017-08-25T04:06:48.282Z,93.10
2017-08-25T04:09:15.928Z,93.20
2017-08-25T04:11:43.512Z,93.00
2017-08-25T04:14:11.122Z,92.90
2017-08-25T04:16:39.321Z,93.20
2017-08-25T04:19:07.014Z,93.60
2017-08-25T04:21:34.596Z,93.80
2017-08-25T04:24:02.205Z,93.50
2017-08-25T04:26:35.142Z,93.50
2017-08-25T04:29:03.006Z,93.30
2017-08-25T04:31:30.611Z,93.00
2017-08-25T04:33:58.323Z,92.80
2017-08-25T04:36:25.936Z,92.90
2017-08-25T04:38:53.543Z,92.70
2017-08-25T04:41:21.229Z,93.00
2017-08-25T04:43:48.827Z,92.70
2017-08-25T04:46:17.237Z,92.70
2017-08-25T04:48:44.897Z,92.40
2017-08-25T04:51:12.523Z,92.30
2017-08-25T04:53:40.223Z,92.70
2017-08-25T04:56:07.941Z,92.80
2017-08-25T04:58:35.540Z,92.60
2017-08-25T05:01:03.146Z,92.40
2017-08-25T05:03:30.728Z,92.40
2017-08-25T05:05:58.382Z,92.30
2017-08-25T05:08:25.983Z,92.20
2017-08-25T05:10:53.590Z,92.30
2017-08-25T05:13:21.207Z,92.50
2017-08-25T05:15:48.813Z,92.50
2017-08-25T05:18:16.371Z,92.30
2017-08-25T05:20:44.004Z,92.40
2017-08-25T05:23:11.638Z,92.40
2017-08-25T05:25:39.225Z,92.20
2017-08-25T05:28:06.873Z,92.30
2017-08-25T05:30:34.480Z,92.10
2017-08-25T05:33:02.139Z,92.30
2017-08-25T05:35:29.751Z,92.30
2017-08-25T05:37:57.379Z,92.50
2017-08-25T05:40:25.052Z,92.40
2017-08-25T05:42:52.732Z,92.40
2017-08-25T05:45:20.334Z,92.50
2017-08-25T05:47:47.955Z,92.30
2017-08-25T05:50:15.583Z,92.10
2017-08-25T05:52:43.271Z,91.90
2017-08-25T05:55:10.867Z,91.70
2017-08-25T05:57:38.483Z,91.60
2017-08-25T06:00:06.075Z,91.70
2017-08-25T06:02:33.697Z,91.20
2017-08-25T06:05:01.334Z,91.00
2017-08-25T06:07:28.946Z,89.90
2017-08-25T06:09:56.603Z,89.70
2017-08-25T06:12:24.247Z,88.30
2017-08-25T06:14:52.430Z,89.20
2017-08-25T06:17:20.038Z,88.50
2017-08-25T06:19:47.691Z,89.10
2017-08-25T06:22:23.188Z,87.10
2017-08-25T06:24:50.813Z,86.60
2017-08-25T06:27:18.420Z,85.70
2017-08-25T06:29:46.018Z,85.40
2017-08-25T06:32:13.649Z,85.80
2017-08-25T06:34:41.288Z,84.20
2017-08-25T06:37:08.966Z,81.20
2017-08-25T06:39:36.618Z,79.70
2017-08-25T06:42:04.219Z,77.90
2017-08-25T06:44:31.835Z,79.30
2017-08-25T06:46:59.445Z,79.00
2017-08-25T06:49:27.084Z,76.30
2017-08-25T06:51:54.721Z,78.00
2017-08-25T06:54:22.392Z,76.50
2017-08-25T06:56:50.068Z,76.00
2017-08-25T06:59:17.662Z,78.20
2017-08-25T07:01:45.307Z,78.40
2017-08-25T07:04:12.919Z,78.10
2017-08-25T07:06:40.520Z,77.10
2017-08-25T07:09:08.205Z,76.60
2017-08-25T07:11:35.820Z,74.20
2017-08-25T07:14:03.455Z,71.60
2017-08-25T07:16:31.102Z,68.90
2017-08-25T07:18:58.748Z,65.30
2017-08-25T07:21:26.353Z,65.20
2017-08-25T07:23:54.035Z,65.70
2017-08-25T07:26:21.617Z,67.90
2017-08-25T07:28:49.238Z,70.30
2017-08-25T07:31:16.882Z,68.90
2017-08-25T07:33:44.562Z,66.40
2017-08-25T07:36:12.145Z,64.10
2017-08-25T07:38:39.981Z,67.10
2017-08-25T07:41:07.751Z,67.10
2017-08-25T07:43:35.319Z,74.90
2017-08-25T07:46:02.904Z,72.70
2017-08-25T07:48:30.525Z,68.90
2017-08-25T07:50:58.127Z,66.50
2017-08-25T07:53:25.716Z,63.60
2017-08-25T07:55:53.408Z,68.70
2017-08-25T07:58:21.022Z,66.40
2017-08-25T08:00:48.626Z,64.80
2017-08-25T08:03:16.315Z,66.90
2017-08-25T08:05:43.949Z,64.20
2017-08-25T08:08:11.646Z,63.00
2017-08-25T08:10:39.282Z,60.00
2017-08-25T08:13:06.908Z,62.90
2017-08-25T08:15:34.520Z,62.90
2017-08-25T08:18:02.214Z,60.40
2017-08-25T08:20:29.881Z,59.50
2017-08-25T08:22:57.510Z,57.30
2017-08-25T08:25:25.153Z,58.40
2017-08-25T08:27:52.780Z,56.70
2017-08-25T08:30:20.454Z,56.40
2017-08-25T08:32:48.125Z,58.30
2017-08-25T08:35:15.738Z,54.20
2017-08-25T08:37:43.359Z,56.50
2017-08-25T08:40:11.003Z,54.60
2017-08-25T08:42:38.597Z,52.30
2017-08-25T08:45:06.239Z,55.00
2017-08-25T08:47:33.889Z,55.40
2017-08-25T08:50:01.497Z,55.70
2017-08-25T08:52:29.116Z,55.60
2017-08-25T08:54:56.692Z,54.40
2017-08-25T08:57:24.292Z,54.30
2017-08-25T08:59:51.924Z,53.10
2017-08-25T09:02:21.902Z,54.50
2017-08-25T09:04:49.629Z,53.00
2017-08-25T09:07:17.246Z,57.10
2017-08-25T09:09:44.873Z,54.80
2017-08-25T09:12:12.571Z,55.10
2017-08-25T09:14:40.196Z,55.10
2017-08-25T09:17:07.815Z,54.00
2017-08-25T09:19:35.579Z,54.60
2017-08-25T09:22:03.186Z,52.30
2017-08-25T09:24:30.765Z,53.70
2017-08-25T09:26:58.484Z,53.20
2017-08-25T09:29:26.144Z,50.80
2017-08-25T09:31:53.787Z,48.40
2017-08-25T09:34:21.493Z,50.80
2017-08-25T09:36:49.092Z,50.00
2017-08-25T09:39:16.745Z,49.00
2017-08-25T09:41:44.401Z,52.00
2017-08-25T09:44:12.063Z,48.60
2017-08-25T09:46:39.685Z,47.90
2017-08-25T09:49:07.280Z,47.30
2017-08-25T09:51:34.892Z,48.90
2017-08-25T09:54:02.547Z,48.20
2017-08-25T09:56:30.202Z,47.00
2017-08-25T09:58:57.819Z,51.40
2017-08-25T10:01:25.524Z,50.10
2017-08-25T10:03:53.145Z,49.10
2017-08-25T10:06:21.494Z,48.40
2017-08-25T10:08:49.715Z,48.40
2017-08-25T10:11:17.656Z,49.50
2017-08-25T10:13:45.313Z,51.60
2017-08-25T10:16:12.921Z,48.70
2017-08-25T10:18:40.561Z,51.20
2017-08-25T10:21:08.161Z,49.20
2017-08-25T10:23:36.682Z,51.60
2017-08-25T10:26:04.335Z,52.80
2017-08-25T10:28:32.990Z,53.80
2017-08-25T10:31:00.737Z,50.90
2017-08-25T10:33:40.156Z,50.70
2017-08-25T10:36:19.416Z,50.10
2017-08-25T10:38:58.752Z,49.20
2017-08-25T10:41:38.008Z,50.00
2017-08-25T10:44:17.406Z,49.50
2017-08-25T10:46:45.038Z,50.90
2017-08-25T10:49:12.627Z,51.80
2017-08-25T10:51:40.244Z,49.50
2017-08-25T10:54:07.872Z,49.70
2017-08-25T10:56:35.486Z,49.70
2017-08-25T10:59:03.140Z,51.90
2017-08-25T11:01:30.796Z,48.70
2017-08-25T11:03:58.491Z,51.30
2017-08-25T11:06:26.126Z,49.30
2017-08-25T11:08:53.802Z,46.50
2017-08-25T11:11:21.417Z,49.90
2017-08-25T11:13:49.039Z,49.60
2017-08-25T11:16:16.675Z,49.60
2017-08-25T11:18:44.358Z,51.00
2017-08-25T11:21:11.978Z,51.50
2017-08-25T11:23:39.568Z,53.30
2017-08-25T11:26:07.198Z,52.70
2017-08-25T11:28:34.788Z,52.20
2017-08-25T11:31:02.457Z,51.40
2017-08-25T11:33:30.106Z,55.10
2017-08-25T11:35:57.715Z,51.10
2017-08-25T11:38:25.341Z,51.60
2017-08-25T11:40:52.934Z,52.10
2017-08-25T11:43:20.533Z,53.70
2017-08-25T11:45:48.140Z,53.40
2017-08-25T11:48:15.773Z,52.60
2017-08-25T11:50:43.407Z,54.10
2017-08-25T11:53:11.015Z,53.50
2017-08-25T11:55:38.632Z,52.50
2017-08-25T11:58:06.307Z,52.70
2017-08-25T12:00:33.907Z,51.40
2017-08-25T12:03:01.516Z,51.40
2017-08-25T12:05:29.116Z,52.70
2017-08-25T12:07:56.726Z,54.20
2017-08-25T12:10:24.332Z,53.40
2017-08-25T12:12:51.951Z,54.20
2017-08-25T12:15:19.551Z,52.20
2017-08-25T12:17:47.150Z,53.00
2017-08-25T12:20:14.756Z,53.40
2017-08-25T12:22:42.472Z,52.70
2017-08-25T12:25:10.063Z,53.20
2017-08-25T12:27:37.679Z,52.80
2017-08-25T12:30:05.266Z,52.10
2017-08-25T12:32:32.887Z,51.30
2017-08-25T12:35:00.566Z,51.50
2017-08-25T12:37:28.208Z,51.70
2017-08-25T12:39:55.805Z,51.80
2017-08-25T12:42:23.434Z,51.40
2017-08-25T12:44:51.086Z,52.40
2017-08-25T12:47:18.716Z,53.10
2017-08-25T12:49:46.350Z,52.90
2017-08-25T12:52:13.941Z,51.90
2017-08-25T12:54:41.660Z,52.00
2017-08-25T12:57:09.278Z,50.90
2017-08-25T12:59:36.973Z,51.60
2017-08-25T13:02:04.599Z,51.20
2017-08-25T13:04:32.974Z,53.40
2017-08-25T13:07:00.560Z,52.50
2017-08-25T13:09:28.212Z,53.10
2017-08-25T13:11:55.858Z,53.60
2017-08-25T13:14:23.500Z,53.00
2017-08-25T13:16:51.161Z,52.20
2017-08-25T13:19:18.821Z,51.70
2017-08-25T13:21:46.423Z,53.40
2017-08-25T13:24:14.016Z,53.00
2017-08-25T13:26:41.747Z,52.10
2017-08-25T13:29:09.377Z,55.90
2017-08-25T13:31:37.004Z,52.90
2017-08-25T13:34:04.706Z,52.00
2017-08-25T13:36:32.302Z,51.90
2017-08-25T13:38:59.895Z,52.80
2017-08-25T13:41:27.519Z,52.10
2017-08-25T13:43:55.129Z,53.10
2017-08-25T13:46:22.718Z,53.40
2017-08-25T13:48:50.329Z,53.30
2017-08-25T13:51:17.986Z,52.20
2017-08-25T13:53:45.575Z,53.70
2017-08-25T13:56:13.198Z,53.10
2017-08-25T13:58:40.847Z,52.70
2017-08-25T14:01:08.510Z,53.40
2017-08-25T14:03:36.095Z,53.00
2017-08-25T14:06:03.692Z,52.50
2017-08-25T14:08:31.354Z,52.80
2017-08-25T14:10:58.976Z,52.20
2017-08-25T14:13:26.563Z,52.10
2017-08-25T14:15:54.333Z,53.40
2017-08-25T14:18:21.964Z,53.30
2017-08-25T14:20:49.574Z,52.80
2017-08-25T14:23:17.276Z,52.30
2017-08-25T14:25:44.872Z,52.10
2017-08-25T14:28:12.475Z,53.60
2017-08-25T14:30:40.123Z,53.40
2017-08-25T14:33:07.830Z,53.00
2017-08-25T14:35:35.467Z,52.90
2017-08-25T14:38:03.074Z,52.50
2017-08-25T14:40:30.685Z,52.40
2017-08-25T14:42:58.279Z,52.90
2017-08-25T14:45:26.038Z,53.70
2017-08-25T14:47:53.678Z,54.20
2017-08-25T14:50:21.276Z,53.90
2017-08-25T14:52:48.881Z,53.80
2017-08-25T14:55:16.486Z,54.20
2017-08-25T14:57:44.090Z,53.40
2017-08-25T15:00:11.725Z,53.80
2017-08-25T15:02:39.375Z,53.90
2017-08-25T15:05:07.018Z,53.70
2017-08-25T15:07:34.589Z,53.50
2017-08-25T15:10:02.203Z,53.80
2017-08-25T15:12:29.825Z,53.80
2017-08-25T15:14:57.424Z,53.80
2017-08-25T15:17:25.172Z,54.50
2017-08-25T15:19:52.834Z,53.20
2017-08-25T15:22:20.428Z,53.70
2017-08-25T15:24:48.094Z,53.70
2017-08-25T15:27:15.777Z,54.00
2017-08-25T15:29:43.421Z,54.20
2017-08-25T15:32:11.047Z,54.50
2017-08-25T15:34:38.651Z,54.60
2017-08-25T15:37:06.289Z,54.10
2017-08-25T15:39:33.893Z,54.50
2017-08-25T15:42:01.477Z,55.20
2017-08-25T15:44:29.159Z,54.80
2017-08-25T15:46:56.737Z,55.50
2017-08-25T15:49:24.345Z,56.10
2017-08-25T15:51:52.029Z,56.10
2017-08-25T15:54:19.650Z,56.20
2017-08-25T15:56:47.240Z,56.10
2017-08-25T15:59:14.956Z,57.10
2017-08-25T16:01:42.560Z,56.10
2017-08-25T16:04:10.205Z,56.40
2017-08-25T16:06:37.784Z,56.10
2017-08-25T16:09:05.438Z,55.90
2017-08-25T16:11:33.002Z,56.10
2017-08-25T16:14:00.633Z,55.70
2017-08-25T16:16:28.230Z,56.50
2017-08-25T16:18:55.809Z,55.60
2017-08-25T16:21:23.425Z,56.00
2017-08-25T16:23:51.154Z,55.30
2017-08-25T16:26:18.748Z,55.30
2017-08-25T16:28:46.414Z,55.50
2017-08-25T16:31:14.098Z,55.70
2017-08-25T16:33:41.797Z,55.30
2017-08-25T16:36:09.508Z,55.50
2017-08-25T16:38:37.165Z,56.00
2017-08-25T16:41:04.792Z,55.30
2017-08-25T16:43:32.434Z,55.10
2017-08-25T16:46:00.017Z,55.20
2017-08-25T16:48:27.646Z,55.30
2017-08-25T16:50:55.307Z,55.00
2017-08-25T16:53:22.893Z,55.00
2017-08-25T16:55:50.527Z,55.80
2017-08-25T16:58:18.132Z,56.30
2017-08-25T17:00:45.768Z,55.50
2017-08-25T17:03:13.409Z,55.40
2017-08-25T17:05:41.093Z,55.70
2017-08-25T17:08:08.729Z,56.00
2017-08-25T17:10:36.332Z,56.40
2017-08-25T17:13:04.158Z,56.80
2017-08-25T17:15:31.849Z,57.60
2017-08-25T17:17:59.446Z,58.20
2017-08-25T17:20:27.052Z,58.90
2017-08-25T17:22:57.409Z,59.30
2017-08-25T17:25:25.091Z,59.50
2017-08-25T17:27:52.939Z,60.90
2017-08-25T17:30:20.587Z,60.70
2017-08-25T17:32:49.280Z,60.30
2017-08-25T17:35:16.902Z,60.80
2017-08-25T17:37:44.519Z,61.10
2017-08-25T17:40:12.083Z,61.50
2017-08-25T17:42:39.712Z,61.70
2017-08-25T17:45:07.461Z,62.30
2017-08-25T17:47:35.526Z,62.10
2017-08-25T17:50:03.221Z,62.00
2017-08-25T17:52:30.915Z,62.10
2017-08-25T17:54:58.485Z,62.00
2017-08-25T17:57:26.077Z,62.40
2017-08-25T17:59:53.709Z,62.50
2017-08-25T18:04:46.062Z,62.50
2017-08-25T18:07:13.669Z,67.10
2017-08-25T18:09:41.239Z,64.00
2017-08-25T18:12:08.848Z,64.30
2017-08-25T18:14:36.444Z,64.20
2017-08-25T18:17:04.084Z,63.70
2017-08-25T18:19:31.738Z,65.10
2017-08-25T18:21:59.811Z,65.50
2017-08-25T18:24:27.586Z,67.10
2017-08-25T18:27:00.475Z,64.40
2017-08-25T18:29:29.433Z,64.40
2017-08-25T18:32:02.376Z,65.00
2017-08-25T18:34:31.788Z,64.70
2017-08-25T18:36:59.376Z,65.80
2017-08-25T18:39:26.992Z,66.80
2017-08-25T18:41:54.576Z,65.70
2017-08-25T18:44:34.682Z,66.40
2017-08-25T18:47:02.316Z,65.20
2017-08-25T18:49:30.024Z,65.60
2017-08-25T18:51:58.992Z,65.20
2017-08-25T18:54:26.634Z,67.60
2017-08-25T18:56:54.287Z,65.80
2017-08-25T18:59:21.929Z,66.10
2017-08-25T19:01:49.499Z,66.40
2017-08-25T19:04:17.102Z,66.70
2017-08-25T19:06:44.734Z,66.70
2017-08-25T19:09:12.348Z,66.80
2017-08-25T19:11:40.071Z,67.20
2017-08-25T19:14:07.818Z,67.40
2017-08-25T19:16:35.404Z,67.80
2017-08-25T19:19:03.003Z,67.60
2017-08-25T19:21:30.633Z,68.20
2017-08-25T19:23:58.265Z,68.90
2017-08-25T19:26:26.167Z,68.20
2017-08-25T19:28:54.724Z,69.90
2017-08-25T19:31:22.434Z,68.20
2017-08-25T19:33:50.104Z,68.50
2017-08-25T19:36:17.712Z,68.50
2017-08-25T19:38:45.437Z,69.60
2017-08-25T19:41:13.051Z,68.90
2017-08-25T19:43:40.773Z,69.40
2017-08-25T19:46:08.418Z,70.10
2017-08-25T19:48:36.059Z,70.30
2017-08-25T19:51:03.657Z,72.10
2017-08-25T19:53:31.358Z,73.30
2017-08-25T19:55:59.051Z,71.60
2017-08-25T19:58:29.781Z,70.30
2017-08-25T20:00:57.683Z,72.20
2017-08-25T20:03:25.337Z,72.80
2017-08-25T20:05:53.074Z,72.10
2017-08-25T20:08:20.721Z,71.40
2017-08-25T20:10:48.338Z,71.30
2017-08-25T20:13:15.929Z,70.70
2017-08-25T20:15:43.816Z,71.00
2017-08-25T20:18:11.475Z,70.90
2017-08-25T20:20:39.076Z,71.40
2017-08-25T20:23:06.709Z,71.00
2017-08-25T20:25:34.313Z,72.80
2017-08-25T20:28:01.961Z,72.40
2017-08-25T20:30:30.622Z,71.90
2017-08-25T20:32:58.376Z,73.20
2017-08-25T20:35:25.986Z,72.20
2017-08-25T20:37:53.586Z,72.80
2017-08-25T20:40:21.212Z,72.70
2017-08-25T20:42:48.806Z,75.00
2017-08-25T20:45:16.419Z,74.00
2017-08-25T20:47:44.142Z,75.50
2017-08-25T20:50:14.910Z,75.80
2017-08-25T20:52:42.641Z,76.70
2017-08-25T20:55:10.219Z,76.30
2017-08-25T20:57:37.819Z,77.70
2017-08-25T21:00:05.448Z,76.10
2017-08-25T21:02:33.032Z,76.20
2017-08-25T21:05:00.641Z,74.50
2017-08-25T21:07:29.383Z,75.00
2017-08-25T21:09:56.975Z,76.80
2017-08-25T21:12:24.577Z,76.70
2017-08-25T21:14:52.201Z,76.10
2017-08-25T21:17:19.780Z,76.30
2017-08-25T21:19:47.377Z,76.10
2017-08-25T21:22:15.002Z,75.90
2017-08-25T21:24:42.732Z,75.60
2017-08-25T21:27:13.361Z,78.10
2017-08-25T21:29:41.063Z,80.30
2017-08-25T21:32:09.520Z,77.10
2017-08-25T21:34:37.132Z,77.10
2017-08-25T21:37:04.763Z,77.30
2017-08-25T21:39:32.363Z,77.20
2017-08-25T21:42:08.222Z,79.30
2017-08-25T21:44:35.841Z,77.80
2017-08-25T21:47:03.500Z,79.00
2017-08-25T21:49:31.128Z,78.20
2017-08-25T21:51:58.873Z,77.30
2017-08-25T21:54:32.405Z,77.80
2017-08-25T21:56:59.994Z,77.90
2017-08-25T21:59:27.686Z,77.50
2017-08-25T22:01:55.343Z,77.40
2017-08-25T22:04:22.989Z,77.90
2017-08-25T22:06:50.637Z,77.70
2017-08-25T22:09:19.330Z,78.20
2017-08-25T22:11:46.908Z,78.90
2017-08-25T22:14:14.628Z,79.40
2017-08-25T22:16:42.434Z,79.20
2017-08-25T22:19:10.025Z,77.80
2017-08-25T22:21:37.612Z,77.70
2017-08-25T22:24:05.304Z,77.40
2017-08-25T22:26:32.903Z,77.30
2017-08-25T22:29:00.475Z,76.70
2017-08-25T22:31:28.173Z,78.60
2017-08-25T22:33:55.748Z,78.40
2017-08-25T22:36:23.452Z,77.90
2017-08-25T22:38:51.064Z,76.20
2017-08-25T22:41:19.472Z,76.90
2017-08-25T22:43:47.192Z,79.90
2017-08-25T22:46:14.805Z,77.50
2017-08-25T22:48:48.414Z,79.60
2017-08-25T22:51:16.121Z,78.30
2017-08-25T22:53:43.742Z,76.70
2017-08-25T22:56:11.371Z,76.60
2017-08-25T22:58:39.123Z,78.80
2017-08-25T23:01:06.874Z,79.80
2017-08-25T23:03:34.502Z,80.30
2017-08-25T23:06:02.174Z,79.20
2017-08-25T23:08:29.840Z,79.50
2017-08-25T23:10:57.545Z,79.90
2017-08-25T23:13:25.260Z,79.70
2017-08-25T23:15:52.950Z,80.00
2017-08-25T23:18:20.550Z,80.30
2017-08-25T23:20:48.135Z,80.00
2017-08-25T23:23:15.917Z,80.30
2017-08-25T23:25:44.544Z,80.30
2017-08-25T23:28:12.133Z,79.80
2017-08-25T23:30:45.734Z,81.70
2017-08-25T23:33:13.302Z,80.50
2017-08-25T23:35:43.805Z,79.90
2017-08-25T23:38:11.406Z,80.60
2017-08-25T23:40:39.003Z,79.40
2017-08-25T23:43:06.727Z,79.40
2017-08-25T23:45:34.321Z,79.70
2017-08-25T23:48:01.920Z,79.60
2017-08-25T23:50:29.514Z,79.80
2017-08-25T23:53:00.387Z,79.60
2017-08-25T23:55:27.989Z,79.30
2017-08-25T23:57:55.559Z,80.40
